sensor_id;sensor_type;location;lat;lon;timestamp;P1;durP1;ratioP1;P2;durP2;ratioP2
28003;SDS011;15330;51.234;6.754;2022-09-12T00:00:38;64.95;;;36.45;;
28003;SDS011;15330;51.234;6.754;2022-09-12T00:03:03;58.33;;;35.22;;
28003;SDS011;15330;51.234;6.754;2022-09-12T00:05:28;60.88;;;35.63;;
28003;SDS011;15330;51.234;6.754;2022-09-12T00:07:55;64.78;;;35.72;;
28003;SDS011;15330;51.234;6.754;2022-09-12T00:10:20;61.40;;;36.15;;
28003;SDS011;15330;51.234;6.754;2022-09-12T00:12:45;58.22;;;35.33;;
28003;SDS011;15330;51.234;6.754;2022-09-12T00:15:11;60.72;;;35.58;;
28003;SDS011;15330;51.234;6.754;2022-09-12T00:17:36;63.83;;;36.38;;
28003;SDS011;15330;51.234;6.754;2022-09-12T00:20:03;53.92;;;32.67;;
28003;SDS011;15330;51.234;6.754;2022-09-12T00:22:31;54.95;;;33.65;;
28003;SDS011;15330;51.234;6.754;2022-09-12T00:24:56;63.15;;;35.90;;
28003;SDS011;15330;51.234;6.754;2022-09-12T00:27:22;57.63;;;34.75;;
28003;SDS011;15330;51.234;6.754;2022-09-12T00:29:47;59.95;;;33.55;;
28003;SDS011;15330;51.234;6.754;2022-09-12T00:32:12;63.13;;;34.80;;
28003;SDS011;15330;51.234;6.754;2022-09-12T00:34:38;59.53;;;33.85;;
28003;SDS011;15330;51.234;6.754;2022-09-12T00:37:03;54.35;;;33.03;;
28003;SDS011;15330;51.234;6.754;2022-09-12T00:39:28;57.97;;;35.13;;
28003;SDS011;15330;51.234;6.754;2022-09-12T00:41:54;58.30;;;33.58;;
28003;SDS011;15330;51.234;6.754;2022-09-12T00:46:49;57.07;;;33.73;;
28003;SDS011;15330;51.234;6.754;2022-09-12T00:49:31;57.08;;;33.17;;
28003;SDS011;15330;51.234;6.754;2022-09-12T00:54:32;55.78;;;32.60;;
28003;SDS011;15330;51.234;6.754;2022-09-12T00:57:01;54.65;;;33.13;;
28003;SDS011;15330;51.234;6.754;2022-09-12T00:59:34;52.60;;;32.08;;
28003;SDS011;15330;51.234;6.754;2022-09-12T01:02:11;53.83;;;32.15;;
28003;SDS011;15330;51.234;6.754;2022-09-12T01:04:37;56.95;;;32.05;;
28003;SDS011;15330;51.234;6.754;2022-09-12T01:07:05;58.05;;;32.08;;
28003;SDS011;15330;51.234;6.754;2022-09-12T01:09:31;49.15;;;30.80;;
28003;SDS011;15330;51.234;6.754;2022-09-12T01:11:57;57.38;;;32.08;;
28003;SDS011;15330;51.234;6.754;2022-09-12T01:14:25;51.17;;;30.77;;
28003;SDS011;15330;51.234;6.754;2022-09-12T01:16:51;48.35;;;30.23;;
28003;SDS011;15330;51.234;6.754;2022-09-12T01:24:57;50.67;;;30.15;;
28003;SDS011;15330;51.234;6.754;2022-09-12T01:30:04;49.60;;;28.73;;
28003;SDS011;15330;51.234;6.754;2022-09-12T01:41:01;46.80;;;27.27;;
28003;SDS011;15330;51.234;6.754;2022-09-12T01:44:49;46.38;;;28.80;;
28003;SDS011;15330;51.234;6.754;2022-09-12T01:49:22;50.63;;;29.10;;
28003;SDS011;15330;51.234;6.754;2022-09-12T01:54:40;44.25;;;28.73;;
28003;SDS011;15330;51.234;6.754;2022-09-12T01:57:10;46.08;;;28.98;;
28003;SDS011;15330;51.234;6.754;2022-09-12T01:59:42;51.08;;;27.27;;
28003;SDS011;15330;51.234;6.754;2022-09-12T02:02:17;48.42;;;28.58;;
28003;SDS011;15330;51.234;6.754;2022-09-12T02:07:20;46.60;;;28.42;;
28003;SDS011;15330;51.234;6.754;2022-09-12T02:09:58;44.63;;;27.02;;
28003;SDS011;15330;51.234;6.754;2022-09-12T02:13:10;46.67;;;27.80;;
28003;SDS011;15330;51.234;6.754;2022-09-12T02:15:38;46.35;;;27.15;;
28003;SDS011;15330;51.234;6.754;2022-09-12T02:18:07;48.60;;;27.73;;
28003;SDS011;15330;51.234;6.754;2022-09-12T02:20:38;45.33;;;27.30;;
28003;SDS011;15330;51.234;6.754;2022-09-12T02:23:08;50.85;;;28.42;;
28003;SDS011;15330;51.234;6.754;2022-09-12T02:25:47;43.88;;;26.58;;
28003;SDS011;15330;51.234;6.754;2022-09-12T02:28:21;46.80;;;27.13;;
28003;SDS011;15330;51.234;6.754;2022-09-12T02:30:56;44.00;;;27.30;;
28003;SDS011;15330;51.234;6.754;2022-09-12T02:33:44;43.65;;;26.52;;
28003;SDS011;15330;51.234;6.754;2022-09-12T02:39:27;46.00;;;26.58;;
28003;SDS011;15330;51.234;6.754;2022-09-12T02:41:56;42.30;;;25.23;;
28003;SDS011;15330;51.234;6.754;2022-09-12T02:44:23;41.70;;;24.38;;
28003;SDS011;15330;51.234;6.754;2022-09-12T02:46:52;48.35;;;27.70;;
28003;SDS011;15330;51.234;6.754;2022-09-12T02:49:21;42.45;;;26.98;;
28003;SDS011;15330;51.234;6.754;2022-09-12T02:51:47;47.13;;;28.48;;
28003;SDS011;15330;51.234;6.754;2022-09-12T02:54:13;45.05;;;27.60;;
28003;SDS011;15330;51.234;6.754;2022-09-12T02:56:41;44.90;;;26.17;;
28003;SDS011;15330;51.234;6.754;2022-09-12T02:59:08;53.20;;;26.20;;
28003;SDS011;15330;51.234;6.754;2022-09-12T03:01:58;41.95;;;24.48;;
28003;SDS011;15330;51.234;6.754;2022-09-12T03:04:38;45.05;;;24.75;;
28003;SDS011;15330;51.234;6.754;2022-09-12T03:10:30;41.77;;;24.43;;
28003;SDS011;15330;51.234;6.754;2022-09-12T03:18:41;38.92;;;23.73;;
28003;SDS011;15330;51.234;6.754;2022-09-12T03:21:12;38.85;;;24.10;;
28003;SDS011;15330;51.234;6.754;2022-09-12T03:29:23;36.50;;;22.27;;
28003;SDS011;15330;51.234;6.754;2022-09-12T03:31:51;35.47;;;22.50;;
28003;SDS011;15330;51.234;6.754;2022-09-12T03:34:18;38.38;;;21.58;;
28003;SDS011;15330;51.234;6.754;2022-09-12T03:36:45;36.40;;;21.88;;
28003;SDS011;15330;51.234;6.754;2022-09-12T03:39:10;34.03;;;20.73;;
28003;SDS011;15330;51.234;6.754;2022-09-12T03:41:35;37.85;;;22.52;;
28003;SDS011;15330;51.234;6.754;2022-09-12T03:44:01;32.05;;;20.92;;
28003;SDS011;15330;51.234;6.754;2022-09-12T03:46:26;34.75;;;21.23;;
28003;SDS011;15330;51.234;6.754;2022-09-12T03:48:52;42.38;;;22.38;;
28003;SDS011;15330;51.234;6.754;2022-09-12T03:51:17;37.67;;;22.50;;
28003;SDS011;15330;51.234;6.754;2022-09-12T03:53:42;36.22;;;21.17;;
28003;SDS011;15330;51.234;6.754;2022-09-12T03:56:08;35.97;;;21.33;;
28003;SDS011;15330;51.234;6.754;2022-09-12T03:58:35;35.05;;;20.50;;
28003;SDS011;15330;51.234;6.754;2022-09-12T04:01:12;36.08;;;20.60;;
28003;SDS011;15330;51.234;6.754;2022-09-12T04:03:39;31.70;;;20.95;;
28003;SDS011;15330;51.234;6.754;2022-09-12T04:06:05;32.08;;;19.27;;
28003;SDS011;15330;51.234;6.754;2022-09-12T04:08:31;35.05;;;19.90;;
28003;SDS011;15330;51.234;6.754;2022-09-12T04:11:04;31.00;;;20.25;;
28003;SDS011;15330;51.234;6.754;2022-09-12T04:13:32;32.35;;;19.85;;
28003;SDS011;15330;51.234;6.754;2022-09-12T04:15:59;32.22;;;19.63;;
28003;SDS011;15330;51.234;6.754;2022-09-12T04:18:34;30.40;;;19.60;;
28003;SDS011;15330;51.234;6.754;2022-09-12T04:21:07;31.70;;;19.02;;
28003;SDS011;15330;51.234;6.754;2022-09-12T04:23:34;31.60;;;18.95;;
28003;SDS011;15330;51.234;6.754;2022-09-12T04:26:01;33.50;;;19.73;;
28003;SDS011;15330;51.234;6.754;2022-09-12T04:28:30;31.48;;;19.00;;
28003;SDS011;15330;51.234;6.754;2022-09-12T04:31:00;29.30;;;19.17;;
28003;SDS011;15330;51.234;6.754;2022-09-12T04:33:31;28.58;;;19.10;;
28003;SDS011;15330;51.234;6.754;2022-09-12T04:36:02;28.15;;;18.70;;
28003;SDS011;15330;51.234;6.754;2022-09-12T04:38:29;28.67;;;18.42;;
28003;SDS011;15330;51.234;6.754;2022-09-12T04:40:54;34.75;;;19.30;;
28003;SDS011;15330;51.234;6.754;2022-09-12T04:43:21;27.55;;;17.90;;
28003;SDS011;15330;51.234;6.754;2022-09-12T04:45:46;28.83;;;18.92;;
28003;SDS011;15330;51.234;6.754;2022-09-12T04:48:11;29.80;;;18.63;;
28003;SDS011;15330;51.234;6.754;2022-09-12T04:50:37;26.70;;;17.65;;
28003;SDS011;15330;51.234;6.754;2022-09-12T04:53:02;28.63;;;18.85;;
28003;SDS011;15330;51.234;6.754;2022-09-12T04:55:27;27.48;;;18.17;;
28003;SDS011;15330;51.234;6.754;2022-09-12T04:57:53;26.80;;;17.10;;
28003;SDS011;15330;51.234;6.754;2022-09-12T05:00:18;30.08;;;16.95;;
28003;SDS011;15330;51.234;6.754;2022-09-12T05:02:44;31.08;;;18.15;;
28003;SDS011;15330;51.234;6.754;2022-09-12T05:05:10;32.25;;;18.33;;
28003;SDS011;15330;51.234;6.754;2022-09-12T05:07:35;28.58;;;18.58;;
28003;SDS011;15330;51.234;6.754;2022-09-12T05:10:01;28.75;;;17.27;;
28003;SDS011;15330;51.234;6.754;2022-09-12T05:12:28;32.78;;;19.27;;
28003;SDS011;15330;51.234;6.754;2022-09-12T05:14:53;26.98;;;18.65;;
28003;SDS011;15330;51.234;6.754;2022-09-12T05:17:18;28.15;;;17.33;;
28003;SDS011;15330;51.234;6.754;2022-09-12T05:19:44;31.20;;;17.95;;
28003;SDS011;15330;51.234;6.754;2022-09-12T05:22:12;29.40;;;17.08;;
28003;SDS011;15330;51.234;6.754;2022-09-12T05:24:37;29.17;;;18.42;;
28003;SDS011;15330;51.234;6.754;2022-09-12T05:27:03;32.42;;;17.73;;
28003;SDS011;15330;51.234;6.754;2022-09-12T05:29:29;27.92;;;16.02;;
28003;SDS011;15330;51.234;6.754;2022-09-12T05:31:55;24.02;;;15.85;;
28003;SDS011;15330;51.234;6.754;2022-09-12T05:34:20;28.80;;;17.15;;
28003;SDS011;15330;51.234;6.754;2022-09-12T05:36:46;24.02;;;15.52;;
28003;SDS011;15330;51.234;6.754;2022-09-12T05:39:11;25.33;;;15.75;;
28003;SDS011;15330;51.234;6.754;2022-09-12T05:41:37;24.65;;;16.35;;
28003;SDS011;15330;51.234;6.754;2022-09-12T05:44:04;22.42;;;16.45;;
28003;SDS011;15330;51.234;6.754;2022-09-12T05:46:34;25.27;;;17.42;;
28003;SDS011;15330;51.234;6.754;2022-09-12T05:49:01;24.60;;;17.27;;
28003;SDS011;15330;51.234;6.754;2022-09-12T05:51:28;23.40;;;16.33;;
28003;SDS011;15330;51.234;6.754;2022-09-12T05:53:58;21.92;;;14.80;;
28003;SDS011;15330;51.234;6.754;2022-09-12T05:56:28;21.02;;;14.55;;
28003;SDS011;15330;51.234;6.754;2022-09-12T05:58:59;24.02;;;14.48;;
28003;SDS011;15330;51.234;6.754;2022-09-12T06:01:26;23.98;;;14.43;;
28003;SDS011;15330;51.234;6.754;2022-09-12T06:03:53;21.15;;;14.60;;
28003;SDS011;15330;51.234;6.754;2022-09-12T06:06:21;20.05;;;13.77;;
28003;SDS011;15330;51.234;6.754;2022-09-12T06:08:49;17.17;;;12.90;;
28003;SDS011;15330;51.234;6.754;2022-09-12T06:11:17;21.77;;;13.68;;
28003;SDS011;15330;51.234;6.754;2022-09-12T06:13:44;19.67;;;12.88;;
28003;SDS011;15330;51.234;6.754;2022-09-12T06:16:11;14.90;;;12.15;;
28003;SDS011;15330;51.234;6.754;2022-09-12T06:18:39;17.45;;;12.35;;
28003;SDS011;15330;51.234;6.754;2022-09-12T06:21:14;16.38;;;12.48;;
28003;SDS011;15330;51.234;6.754;2022-09-12T06:23:40;22.90;;;12.30;;
28003;SDS011;15330;51.234;6.754;2022-09-12T06:26:07;17.35;;;11.80;;
28003;SDS011;15330;51.234;6.754;2022-09-12T06:28:35;19.52;;;11.77;;
28003;SDS011;15330;51.234;6.754;2022-09-12T06:31:03;17.35;;;11.77;;
28003;SDS011;15330;51.234;6.754;2022-09-12T06:33:30;19.42;;;12.23;;
28003;SDS011;15330;51.234;6.754;2022-09-12T06:36:01;17.63;;;12.50;;
28003;SDS011;15330;51.234;6.754;2022-09-12T06:38:31;16.55;;;12.70;;
28003;SDS011;15330;51.234;6.754;2022-09-12T06:40:57;17.92;;;13.25;;
28003;SDS011;15330;51.234;6.754;2022-09-12T06:43:24;18.25;;;12.50;;
28003;SDS011;15330;51.234;6.754;2022-09-12T06:45:50;21.35;;;13.35;;
28003;SDS011;15330;51.234;6.754;2022-09-12T06:48:16;15.32;;;12.68;;
28003;SDS011;15330;51.234;6.754;2022-09-12T06:50:42;16.02;;;12.32;;
28003;SDS011;15330;51.234;6.754;2022-09-12T06:53:07;16.17;;;12.07;;
28003;SDS011;15330;51.234;6.754;2022-09-12T06:55:33;19.60;;;11.88;;
28003;SDS011;15330;51.234;6.754;2022-09-12T06:57:59;15.75;;;12.55;;
28003;SDS011;15330;51.234;6.754;2022-09-12T07:00:24;16.60;;;12.38;;
28003;SDS011;15330;51.234;6.754;2022-09-12T07:02:53;16.58;;;12.13;;
28003;SDS011;15330;51.234;6.754;2022-09-12T07:05:20;16.80;;;12.38;;
28003;SDS011;15330;51.234;6.754;2022-09-12T07:07:46;19.45;;;13.45;;
28003;SDS011;15330;51.234;6.754;2022-09-12T07:10:11;17.30;;;13.25;;
28003;SDS011;15330;51.234;6.754;2022-09-12T07:12:36;22.73;;;15.13;;
28003;SDS011;15330;51.234;6.754;2022-09-12T07:15:02;19.35;;;13.55;;
28003;SDS011;15330;51.234;6.754;2022-09-12T07:17:27;20.15;;;14.32;;
28003;SDS011;15330;51.234;6.754;2022-09-12T07:19:53;19.33;;;14.30;;
28003;SDS011;15330;51.234;6.754;2022-09-12T07:22:18;18.15;;;13.80;;
28003;SDS011;15330;51.234;6.754;2022-09-12T07:24:43;19.83;;;14.65;;
28003;SDS011;15330;51.234;6.754;2022-09-12T07:27:10;20.63;;;13.43;;
28003;SDS011;15330;51.234;6.754;2022-09-12T07:29:35;21.48;;;12.95;;
28003;SDS011;15330;51.234;6.754;2022-09-12T07:32:00;22.95;;;14.88;;
28003;SDS011;15330;51.234;6.754;2022-09-12T07:34:26;23.40;;;15.15;;
28003;SDS011;15330;51.234;6.754;2022-09-12T07:36:51;23.60;;;14.27;;
28003;SDS011;15330;51.234;6.754;2022-09-12T07:39:17;22.77;;;15.27;;
28003;SDS011;15330;51.234;6.754;2022-09-12T07:41:42;19.75;;;15.07;;
28003;SDS011;15330;51.234;6.754;2022-09-12T07:44:08;22.52;;;13.90;;
28003;SDS011;15330;51.234;6.754;2022-09-12T07:46:33;23.20;;;14.75;;
28003;SDS011;15330;51.234;6.754;2022-09-12T07:49:00;23.40;;;15.02;;
28003;SDS011;15330;51.234;6.754;2022-09-12T07:51:26;22.38;;;14.57;;
28003;SDS011;15330;51.234;6.754;2022-09-12T07:53:53;20.67;;;15.48;;
28003;SDS011;15330;51.234;6.754;2022-09-12T07:56:20;24.92;;;15.40;;
28003;SDS011;15330;51.234;6.754;2022-09-12T07:58:45;22.73;;;15.23;;
28003;SDS011;15330;51.234;6.754;2022-09-12T08:01:15;22.05;;;15.35;;
28003;SDS011;15330;51.234;6.754;2022-09-12T08:03:43;21.38;;;15.23;;
28003;SDS011;15330;51.234;6.754;2022-09-12T08:06:11;22.20;;;15.20;;
28003;SDS011;15330;51.234;6.754;2022-09-12T08:08:39;24.00;;;15.25;;
28003;SDS011;15330;51.234;6.754;2022-09-12T08:11:06;20.77;;;14.00;;
28003;SDS011;15330;51.234;6.754;2022-09-12T08:13:34;20.98;;;15.30;;
28003;SDS011;15330;51.234;6.754;2022-09-12T08:16:02;21.25;;;14.77;;
28003;SDS011;15330;51.234;6.754;2022-09-12T08:18:33;20.23;;;14.52;;
28003;SDS011;15330;51.234;6.754;2022-09-12T08:21:00;24.38;;;15.02;;
28003;SDS011;15330;51.234;6.754;2022-09-12T08:23:27;20.73;;;14.30;;
28003;SDS011;15330;51.234;6.754;2022-09-12T08:25:56;19.15;;;13.95;;
28003;SDS011;15330;51.234;6.754;2022-09-12T08:28:23;14.77;;;11.90;;
28003;SDS011;15330;51.234;6.754;2022-09-12T08:30:50;17.85;;;13.10;;
28003;SDS011;15330;51.234;6.754;2022-09-12T08:33:16;16.33;;;12.73;;
28003;SDS011;15330;51.234;6.754;2022-09-12T08:35:42;15.00;;;13.18;;
28003;SDS011;15330;51.234;6.754;2022-09-12T08:38:08;18.38;;;14.50;;
28003;SDS011;15330;51.234;6.754;2022-09-12T08:40:37;17.35;;;13.52;;
28003;SDS011;15330;51.234;6.754;2022-09-12T08:43:18;16.10;;;12.50;;
28003;SDS011;15330;51.234;6.754;2022-09-12T08:46:02;18.58;;;12.60;;
28003;SDS011;15330;51.234;6.754;2022-09-12T08:48:36;14.88;;;12.55;;
28003;SDS011;15330;51.234;6.754;2022-09-12T08:51:02;14.55;;;11.82;;
28003;SDS011;15330;51.234;6.754;2022-09-12T08:53:29;15.82;;;12.75;;
28003;SDS011;15330;51.234;6.754;2022-09-12T08:55:57;17.42;;;12.02;;
28003;SDS011;15330;51.234;6.754;2022-09-12T08:58:24;15.93;;;12.20;;
28003;SDS011;15330;51.234;6.754;2022-09-12T09:12:12;20.23;;;12.25;;
28003;SDS011;15330;51.234;6.754;2022-09-12T09:15:02;15.07;;;11.82;;
28003;SDS011;15330;51.234;6.754;2022-09-12T09:17:48;19.27;;;12.02;;
28003;SDS011;15330;51.234;6.754;2022-09-12T09:22:51;14.55;;;10.25;;
28003;SDS011;15330;51.234;6.754;2022-09-12T09:25:22;13.27;;;10.88;;
28003;SDS011;15330;51.234;6.754;2022-09-12T09:28:00;15.43;;;10.65;;
28003;SDS011;15330;51.234;6.754;2022-09-12T09:30:30;13.70;;;10.75;;
28003;SDS011;15330;51.234;6.754;2022-09-12T09:32:59;12.48;;;9.05;;
28003;SDS011;15330;51.234;6.754;2022-09-12T09:35:43;10.95;;;9.57;;
28003;SDS011;15330;51.234;6.754;2022-09-12T09:38:23;12.30;;;10.02;;
28003;SDS011;15330;51.234;6.754;2022-09-12T09:43:39;12.65;;;9.98;;
28003;SDS011;15330;51.234;6.754;2022-09-12T09:46:05;12.27;;;9.18;;
28003;SDS011;15330;51.234;6.754;2022-09-12T09:48:31;11.20;;;10.10;;
28003;SDS011;15330;51.234;6.754;2022-09-12T09:51:02;12.02;;;9.98;;
28003;SDS011;15330;51.234;6.754;2022-09-12T09:53:36;12.20;;;10.18;;
28003;SDS011;15330;51.234;6.754;2022-09-12T09:56:11;11.70;;;8.50;;
28003;SDS011;15330;51.234;6.754;2022-09-12T09:58:47;11.68;;;7.95;;
28003;SDS011;15330;51.234;6.754;2022-09-12T10:01:16;9.60;;;8.60;;
28003;SDS011;15330;51.234;6.754;2022-09-12T10:06:21;10.40;;;7.32;;
28003;SDS011;15330;51.234;6.754;2022-09-12T10:08:49;12.32;;;7.65;;
28003;SDS011;15330;51.234;6.754;2022-09-12T10:16:28;8.55;;;7.65;;
28003;SDS011;15330;51.234;6.754;2022-09-12T10:18:54;8.82;;;7.15;;
28003;SDS011;15330;51.234;6.754;2022-09-12T10:21:54;11.60;;;7.60;;
28003;SDS011;15330;51.234;6.754;2022-09-12T10:26:57;8.63;;;7.70;;
28003;SDS011;15330;51.234;6.754;2022-09-12T10:29:43;8.45;;;7.65;;
28003;SDS011;15330;51.234;6.754;2022-09-12T10:32:28;8.80;;;7.43;;
28003;SDS011;15330;51.234;6.754;2022-09-12T10:35:19;6.95;;;5.47;;
28003;SDS011;15330;51.234;6.754;2022-09-12T10:37:52;7.30;;;6.60;;
28003;SDS011;15330;51.234;6.754;2022-09-12T10:40:22;7.53;;;6.82;;
28003;SDS011;15330;51.234;6.754;2022-09-12T10:45:37;7.50;;;6.13;;
28003;SDS011;15330;51.234;6.754;2022-09-12T10:50:49;5.00;;;4.47;;
28003;SDS011;15330;51.234;6.754;2022-09-12T10:53:26;5.82;;;5.20;;
28003;SDS011;15330;51.234;6.754;2022-09-12T10:56:12;5.72;;;5.13;;
28003;SDS011;15330;51.234;6.754;2022-09-12T11:01:37;6.82;;;5.05;;
28003;SDS011;15330;51.234;6.754;2022-09-12T11:13:15;4.93;;;3.35;;
28003;SDS011;15330;51.234;6.754;2022-09-12T11:29:11;5.10;;;3.60;;
28003;SDS011;15330;51.234;6.754;2022-09-12T11:34:47;5.78;;;3.28;;
28003;SDS011;15330;51.234;6.754;2022-09-12T11:37:38;5.93;;;4.47;;
28003;SDS011;15330;51.234;6.754;2022-09-12T11:43:04;4.63;;;3.72;;
28003;SDS011;15330;51.234;6.754;2022-09-12T11:45:41;7.13;;;5.55;;
28003;SDS011;15330;51.234;6.754;2022-09-12T11:48:26;4.00;;;3.60;;
28003;SDS011;15330;51.234;6.754;2022-09-12T11:50:55;19.50;;;16.17;;
28003;SDS011;15330;51.234;6.754;2022-09-12T11:53:27;3.83;;;3.30;;
28003;SDS011;15330;51.234;6.754;2022-09-12T11:58:39;5.10;;;4.20;;
28003;SDS011;15330;51.234;6.754;2022-09-12T12:01:19;5.78;;;3.95;;
28003;SDS011;15330;51.234;6.754;2022-09-12T12:03:47;4.32;;;3.88;;
28003;SDS011;15330;51.234;6.754;2022-09-12T12:08:49;3.85;;;3.53;;
28003;SDS011;15330;51.234;6.754;2022-09-12T12:11:23;5.65;;;3.42;;
28003;SDS011;15330;51.234;6.754;2022-09-12T12:16:31;4.65;;;4.20;;
28003;SDS011;15330;51.234;6.754;2022-09-12T12:19:03;4.18;;;3.70;;
28003;SDS011;15330;51.234;6.754;2022-09-12T12:24:16;4.57;;;4.00;;
28003;SDS011;15330;51.234;6.754;2022-09-12T12:26:53;4.55;;;3.80;;
28003;SDS011;15330;51.234;6.754;2022-09-12T12:29:47;4.78;;;3.60;;
28003;SDS011;15330;51.234;6.754;2022-09-12T12:34:45;5.20;;;3.90;;
28003;SDS011;15330;51.234;6.754;2022-09-12T12:42:09;5.22;;;3.92;;
28003;SDS011;15330;51.234;6.754;2022-09-12T12:45:09;4.57;;;3.63;;
28003;SDS011;15330;51.234;6.754;2022-09-12T12:47:27;3.90;;;3.50;;
28003;SDS011;15330;51.234;6.754;2022-09-12T12:50:05;4.45;;;3.70;;
28003;SDS011;15330;51.234;6.754;2022-09-12T12:52:46;3.30;;;3.00;;
28003;SDS011;15330;51.234;6.754;2022-09-12T12:55:13;3.55;;;3.25;;
28003;SDS011;15330;51.234;6.754;2022-09-12T12:57:49;5.57;;;3.83;;
28003;SDS011;15330;51.234;6.754;2022-09-12T13:05:29;3.70;;;3.40;;
28003;SDS011;15330;51.234;6.754;2022-09-12T13:08:04;3.30;;;3.00;;
28003;SDS011;15330;51.234;6.754;2022-09-12T13:10:34;4.33;;;3.47;;
28003;SDS011;15330;51.234;6.754;2022-09-12T13:13:01;4.53;;;3.00;;
28003;SDS011;15330;51.234;6.754;2022-09-12T13:18:33;4.00;;;3.50;;
28003;SDS011;15330;51.234;6.754;2022-09-12T13:23:37;4.75;;;3.58;;
28003;SDS011;15330;51.234;6.754;2022-09-12T13:26:07;4.60;;;3.35;;
28003;SDS011;15330;51.234;6.754;2022-09-12T13:28:35;3.60;;;3.30;;
28003;SDS011;15330;51.234;6.754;2022-09-12T13:33:45;4.18;;;3.05;;
28003;SDS011;15330;51.234;6.754;2022-09-12T13:44:31;3.80;;;2.67;;
28003;SDS011;15330;51.234;6.754;2022-09-12T13:47:07;4.53;;;3.08;;
28003;SDS011;15330;51.234;6.754;2022-09-12T13:49:37;3.78;;;2.60;;
28003;SDS011;15330;51.234;6.754;2022-09-12T13:52:05;3.58;;;3.00;;
28003;SDS011;15330;51.234;6.754;2022-09-12T13:54:33;4.18;;;3.25;;
28003;SDS011;15330;51.234;6.754;2022-09-12T13:57:03;2.88;;;2.50;;
28003;SDS011;15330;51.234;6.754;2022-09-12T13:59:38;3.38;;;2.88;;
28003;SDS011;15330;51.234;6.754;2022-09-12T14:02:19;3.65;;;3.05;;
28003;SDS011;15330;51.234;6.754;2022-09-12T14:04:50;4.63;;;3.25;;
28003;SDS011;15330;51.234;6.754;2022-09-12T14:07:36;3.58;;;3.10;;
28003;SDS011;15330;51.234;6.754;2022-09-12T14:12:48;3.75;;;3.45;;
28003;SDS011;15330;51.234;6.754;2022-09-12T14:15:19;4.95;;;4.30;;
28003;SDS011;15330;51.234;6.754;2022-09-12T14:17:52;6.47;;;3.50;;
28003;SDS011;15330;51.234;6.754;2022-09-12T14:20:20;6.05;;;3.40;;
28003;SDS011;15330;51.234;6.754;2022-09-12T14:22:47;4.45;;;3.40;;
28003;SDS011;15330;51.234;6.754;2022-09-12T14:25:23;4.30;;;3.30;;
28003;SDS011;15330;51.234;6.754;2022-09-12T14:27:50;3.92;;;3.53;;
28003;SDS011;15330;51.234;6.754;2022-09-12T14:33:03;5.78;;;3.83;;
28003;SDS011;15330;51.234;6.754;2022-09-12T14:35:37;7.75;;;5.18;;
28003;SDS011;15330;51.234;6.754;2022-09-12T14:38:24;8.45;;;7.30;;
28003;SDS011;15330;51.234;6.754;2022-09-12T14:41:04;4.93;;;4.00;;
28003;SDS011;15330;51.234;6.754;2022-09-12T14:43:33;6.15;;;3.58;;
28003;SDS011;15330;51.234;6.754;2022-09-12T14:46:02;4.55;;;3.40;;
28003;SDS011;15330;51.234;6.754;2022-09-12T14:48:31;4.53;;;3.50;;
28003;SDS011;15330;51.234;6.754;2022-09-12T14:51:00;3.22;;;3.00;;
28003;SDS011;15330;51.234;6.754;2022-09-12T14:58:29;5.88;;;3.22;;
28003;SDS011;15330;51.234;6.754;2022-09-12T15:06:45;4.10;;;3.70;;
28003;SDS011;15330;51.234;6.754;2022-09-12T15:09:07;3.35;;;3.05;;
28003;SDS011;15330;51.234;6.754;2022-09-12T15:11:36;4.30;;;3.50;;
28003;SDS011;15330;51.234;6.754;2022-09-12T15:14:05;4.40;;;3.50;;
28003;SDS011;15330;51.234;6.754;2022-09-12T15:16:36;4.03;;;3.70;;
28003;SDS011;15330;51.234;6.754;2022-09-12T15:19:02;3.57;;;3.27;;
28003;SDS011;15330;51.234;6.754;2022-09-12T15:21:27;4.03;;;3.70;;
28003;SDS011;15330;51.234;6.754;2022-09-12T15:23:52;4.72;;;3.88;;
28003;SDS011;15330;51.234;6.754;2022-09-12T15:26:19;6.20;;;3.90;;
28003;SDS011;15330;51.234;6.754;2022-09-12T15:28:46;6.93;;;3.53;;
28003;SDS011;15330;51.234;6.754;2022-09-12T15:31:19;5.93;;;3.50;;
28003;SDS011;15330;51.234;6.754;2022-09-12T15:33:50;4.13;;;3.72;;
28003;SDS011;15330;51.234;6.754;2022-09-12T15:36:18;4.00;;;3.50;;
28003;SDS011;15330;51.234;6.754;2022-09-12T15:38:45;6.30;;;3.42;;
28003;SDS011;15330;51.234;6.754;2022-09-12T15:41:19;4.13;;;3.75;;
28003;SDS011;15330;51.234;6.754;2022-09-12T15:43:46;3.85;;;3.40;;
28003;SDS011;15330;51.234;6.754;2022-09-12T15:46:13;4.07;;;3.67;;
28003;SDS011;15330;51.234;6.754;2022-09-12T15:48:39;4.57;;;3.80;;
28003;SDS011;15330;51.234;6.754;2022-09-12T15:51:05;5.03;;;3.42;;
28003;SDS011;15330;51.234;6.754;2022-09-12T15:53:35;6.07;;;3.55;;
28003;SDS011;15330;51.234;6.754;2022-09-12T15:56:00;6.18;;;5.10;;
28003;SDS011;15330;51.234;6.754;2022-09-12T15:58:26;4.10;;;3.70;;
28003;SDS011;15330;51.234;6.754;2022-09-12T16:00:51;4.53;;;4.07;;
28003;SDS011;15330;51.234;6.754;2022-09-12T16:03:21;3.92;;;3.15;;
28003;SDS011;15330;51.234;6.754;2022-09-12T16:05:49;5.47;;;4.00;;
28003;SDS011;15330;51.234;6.754;2022-09-12T16:08:20;4.72;;;3.65;;
28003;SDS011;15330;51.234;6.754;2022-09-12T16:10:45;4.97;;;3.63;;
28003;SDS011;15330;51.234;6.754;2022-09-12T16:13:14;4.20;;;3.80;;
28003;SDS011;15330;51.234;6.754;2022-09-12T16:15:39;4.80;;;3.80;;
28003;SDS011;15330;51.234;6.754;2022-09-12T16:18:05;3.90;;;3.47;;
28003;SDS011;15330;51.234;6.754;2022-09-12T16:20:31;4.90;;;3.70;;
28003;SDS011;15330;51.234;6.754;2022-09-12T16:22:56;4.88;;;3.50;;
28003;SDS011;15330;51.234;6.754;2022-09-12T16:25:21;4.00;;;3.67;;
28003;SDS011;15330;51.234;6.754;2022-09-12T16:27:46;5.20;;;3.25;;
28003;SDS011;15330;51.234;6.754;2022-09-12T16:30:12;4.23;;;3.47;;
28003;SDS011;15330;51.234;6.754;2022-09-12T16:32:37;3.97;;;3.58;;
28003;SDS011;15330;51.234;6.754;2022-09-12T16:35:03;9.90;;;4.00;;
28003;SDS011;15330;51.234;6.754;2022-09-12T16:37:29;5.68;;;3.83;;
28003;SDS011;15330;51.234;6.754;2022-09-12T16:39:56;3.85;;;3.45;;
28003;SDS011;15330;51.234;6.754;2022-09-12T16:42:21;3.92;;;3.63;;
28003;SDS011;15330;51.234;6.754;2022-09-12T16:44:47;4.13;;;3.72;;
28003;SDS011;15330;51.234;6.754;2022-09-12T16:47:13;4.28;;;3.88;;
28003;SDS011;15330;51.234;6.754;2022-09-12T16:49:39;3.88;;;3.53;;
28003;SDS011;15330;51.234;6.754;2022-09-12T16:52:04;3.58;;;3.22;;
28003;SDS011;15330;51.234;6.754;2022-09-12T16:54:30;6.90;;;3.78;;
28003;SDS011;15330;51.234;6.754;2022-09-12T16:56:56;3.83;;;3.42;;
28003;SDS011;15330;51.234;6.754;2022-09-12T16:59:21;3.90;;;3.50;;
28003;SDS011;15330;51.234;6.754;2022-09-12T17:01:47;4.50;;;3.53;;
28003;SDS011;15330;51.234;6.754;2022-09-12T17:04:12;3.97;;;3.60;;
28003;SDS011;15330;51.234;6.754;2022-09-12T17:06:37;5.90;;;3.60;;
28003;SDS011;15330;51.234;6.754;2022-09-12T17:09:03;6.00;;;4.00;;
28003;SDS011;15330;51.234;6.754;2022-09-12T17:11:30;4.60;;;3.75;;
28003;SDS011;15330;51.234;6.754;2022-09-12T17:14:01;4.45;;;3.35;;
28003;SDS011;15330;51.234;6.754;2022-09-12T17:16:29;6.82;;;3.60;;
28003;SDS011;15330;51.234;6.754;2022-09-12T17:18:55;3.78;;;3.25;;
28003;SDS011;15330;51.234;6.754;2022-09-12T17:21:21;4.43;;;3.47;;
28003;SDS011;15330;51.234;6.754;2022-09-12T17:23:46;4.30;;;3.60;;
28003;SDS011;15330;51.234;6.754;2022-09-12T17:26:12;5.72;;;3.40;;
28003;SDS011;15330;51.234;6.754;2022-09-12T17:28:39;4.53;;;3.22;;
28003;SDS011;15330;51.234;6.754;2022-09-12T17:31:06;5.40;;;3.72;;